sensor_id;sensor_type;location;lat;lon;timestamp;P1;P2;P0
45871;PMS5003;32333;55.844;-3.210;2023-02-26T00:01:49;0;0;
45871;PMS5003;32333;55.844;-3.210;2023-02-26T00:04:18;0;0;
45871;PMS5003;32333;55.844;-3.210;2023-02-26T00:06:49;1;0;
45871;PMS5003;32333;55.844;-3.210;2023-02-26T00:09:18;0;0;
45871;PMS5003;32333;55.844;-3.210;2023-02-26T00:11:46;0;0;
45871;PMS5003;32333;55.844;-3.210;2023-02-26T00:14:39;0;0;
45871;PMS5003;32333;55.844;-3.210;2023-02-26T00:17:22;0;0;
45871;PMS5003;32333;55.844;-3.210;2023-02-26T00:19:58;0;0;
45871;PMS5003;32333;55.844;-3.210;2023-02-26T00:22:30;0;0;
45871;PMS5003;32333;55.844;-3.210;2023-02-26T00:25:00;0;0;
45871;PMS5003;32333;55.844;-3.210;2023-02-26T00:27:29;0;0;
45871;PMS5003;32333;55.844;-3.210;2023-02-26T00:29:58;0;0;
45871;PMS5003;32333;55.844;-3.210;2023-02-26T00:32:28;0;0;
45871;PMS5003;32333;55.844;-3.210;2023-02-26T00:34:56;0;0;
45871;PMS5003;32333;55.844;-3.210;2023-02-26T00:37:26;0;0;
45871;PMS5003;32333;55.844;-3.210;2023-02-26T00:40:10;0;0;
45871;PMS5003;32333;55.844;-3.210;2023-02-26T00:44:36;0;0;
45871;PMS5003;32333;55.844;-3.210;2023-02-26T00:47:06;0;0;
45871;PMS5003;32333;55.844;-3.210;2023-02-26T00:49:41;0;0;
45871;PMS5003;32333;55.844;-3.210;2023-02-26T00:52:21;0;0;
45871;PMS5003;32333;55.844;-3.210;2023-02-26T00:54:58;0;0;
45871;PMS5003;32333;55.844;-3.210;2023-02-26T00:57:26;0;0;
45871;PMS5003;32333;55.844;-3.210;2023-02-26T00:59:54;0;0;
45871;PMS5003;32333;55.844;-3.210;2023-02-26T01:02:22;0;0;
45871;PMS5003;32333;55.844;-3.210;2023-02-26T01:04:51;0;0;
45871;PMS5003;32333;55.844;-3.210;2023-02-26T01:07:21;0;0;
45871;PMS5003;32333;55.844;-3.210;2023-02-26T01:09:50;0;0;
45871;PMS5003;32333;55.844;-3.210;2023-02-26T01:14:35;0;0;
45871;PMS5003;32333;55.844;-3.210;2023-02-26T01:17:05;4;4;
45871;PMS5003;32333;55.844;-3.210;2023-02-26T01:19:46;0;0;
45871;PMS5003;32333;55.844;-3.210;2023-02-26T01:22:20;0;0;
45871;PMS5003;32333;55.844;-3.210;2023-02-26T01:24:52;0;0;
45871;PMS5003;32333;55.844;-3.210;2023-02-26T01:27:29;0;0;
45871;PMS5003;32333;55.844;-3.210;2023-02-26T01:29:58;0;0;
45871;PMS5003;32333;55.844;-3.210;2023-02-26T01:32:29;0;0;
45871;PMS5003;32333;55.844;-3.210;2023-02-26T01:35:14;0;0;
45871;PMS5003;32333;55.844;-3.210;2023-02-26T01:37:51;0;0;
45871;PMS5003;32333;55.844;-3.210;2023-02-26T01:41:02;0;0;
45871;PMS5003;32333;55.844;-3.210;2023-02-26T01:44:39;1;0;
45871;PMS5003;32333;55.844;-3.210;2023-02-26T01:47:17;0;0;
45871;PMS5003;32333;55.844;-3.210;2023-02-26T01:49:52;0;0;
45871;PMS5003;32333;55.844;-3.210;2023-02-26T01:53:20;0;0;
45871;PMS5003;32333;55.844;-3.210;2023-02-26T01:55:50;0;0;
45871;PMS5003;32333;55.844;-3.210;2023-02-26T01:58:22;0;0;
45871;PMS5003;32333;55.844;-3.210;2023-02-26T02:00:52;0;0;
45871;PMS5003;32333;55.844;-3.210;2023-02-26T02:03:21;0;0;
45871;PMS5003;32333;55.844;-3.210;2023-02-26T02:05:53;0;0;
45871;PMS5003;32333;55.844;-3.210;2023-02-26T02:08:25;0;0;
45871;PMS5003;32333;55.844;-3.210;2023-02-26T02:10:52;0;0;
45871;PMS5003;32333;55.844;-3.210;2023-02-26T02:14:40;0;0;
45871;PMS5003;32333;55.844;-3.210;2023-02-26T02:17:21;0;0;
45871;PMS5003;32333;55.844;-3.210;2023-02-26T02:20:04;0;0;
45871;PMS5003;32333;55.844;-3.210;2023-02-26T02:22:55;0;0;
45871;PMS5003;32333;55.844;-3.210;2023-02-26T02:25:38;0;0;
45871;PMS5003;32333;55.844;-3.210;2023-02-26T02:28:43;0;0;
45871;PMS5003;32333;55.844;-3.210;2023-02-26T02:31:25;0;0;
45871;PMS5003;32333;55.844;-3.210;2023-02-26T02:33:58;0;0;
45871;PMS5003;32333;55.844;-3.210;2023-02-26T02:36:32;0;0;
45871;PMS5003;32333;55.844;-3.210;2023-02-26T02:39:04;0;0;
45871;PMS5003;32333;55.844;-3.210;2023-02-26T02:41:41;0;0;
45871;PMS5003;32333;55.844;-3.210;2023-02-26T02:44:36;0;0;
45871;PMS5003;32333;55.844;-3.210;2023-02-26T02:47:08;0;0;
45871;PMS5003;32333;55.844;-3.210;2023-02-26T02:49:40;0;0;
45871;PMS5003;32333;55.844;-3.210;2023-02-26T02:52:14;0;0;
45871;PMS5003;32333;55.844;-3.210;2023-02-26T02:54:48;0;0;
45871;PMS5003;32333;55.844;-3.210;2023-02-26T02:57:20;0;0;
45871;PMS5003;32333;55.844;-3.210;2023-02-26T02:59:55;0;0;
45871;PMS5003;32333;55.844;-3.210;2023-02-26T03:02:30;0;0;
45871;PMS5003;32333;55.844;-3.210;2023-02-26T03:05:02;0;0;
45871;PMS5003;32333;55.844;-3.210;2023-02-26T03:07:31;0;0;
45871;PMS5003;32333;55.844;-3.210;2023-02-26T03:10:05;0;0;
45871;PMS5003;32333;55.844;-3.210;2023-02-26T03:14:35;0;0;
45871;PMS5003;32333;55.844;-3.210;2023-02-26T03:17:11;0;0;
45871;PMS5003;32333;55.844;-3.210;2023-02-26T03:19:48;0;0;
45871;PMS5003;32333;55.844;-3.210;2023-02-26T03:22:33;0;0;
45871;PMS5003;32333;55.844;-3.210;2023-02-26T03:25:08;0;0;
45871;PMS5003;32333;55.844;-3.210;2023-02-26T03:27:43;1;1;
45871;PMS5003;32333;55.844;-3.210;2023-02-26T03:30:16;0;0;
45871;PMS5003;32333;55.844;-3.210;2023-02-26T03:32:51;0;0;
45871;PMS5003;32333;55.844;-3.210;2023-02-26T03:35:28;0;0;
45871;PMS5003;32333;55.844;-3.210;2023-02-26T03:38:03;0;0;
45871;PMS5003;32333;55.844;-3.210;2023-02-26T03:40:36;0;0;
45871;PMS5003;32333;55.844;-3.210;2023-02-26T03:44:38;0;0;
45871;PMS5003;32333;55.844;-3.210;2023-02-26T03:47:14;0;0;
45871;PMS5003;32333;55.844;-3.210;2023-02-26T03:49:52;0;0;
45871;PMS5003;32333;55.844;-3.210;2023-02-26T04:00:13;0;0;
45871;PMS5003;32333;55.844;-3.210;2023-02-26T04:02:46;0;0;
45871;PMS5003;32333;55.844;-3.210;2023-02-26T04:05:22;0;0;
45871;PMS5003;32333;55.844;-3.210;2023-02-26T04:07:52;0;0;
45871;PMS5003;32333;55.844;-3.210;2023-02-26T04:10:24;0;0;
45871;PMS5003;32333;55.844;-3.210;2023-02-26T04:14:36;0;0;
45871;PMS5003;32333;55.844;-3.210;2023-02-26T04:17:03;0;0;
45871;PMS5003;32333;55.844;-3.210;2023-02-26T04:19:31;0;0;
45871;PMS5003;32333;55.844;-3.210;2023-02-26T04:22:00;0;0;
45871;PMS5003;32333;55.844;-3.210;2023-02-26T04:24:27;0;0;
45871;PMS5003;32333;55.844;-3.210;2023-02-26T04:26:58;0;0;
45871;PMS5003;32333;55.844;-3.210;2023-02-26T04:29:26;0;0;
45871;PMS5003;32333;55.844;-3.210;2023-02-26T04:31:54;0;0;
45871;PMS5003;32333;55.844;-3.210;2023-02-26T04:34:24;0;0;
45871;PMS5003;32333;55.844;-3.210;2023-02-26T04:36:54;0;0;
45871;PMS5003;32333;55.844;-3.210;2023-02-26T04:39:23;0;0;
45871;PMS5003;32333;55.844;-3.210;2023-02-26T04:41:51;0;0;
45871;PMS5003;32333;55.844;-3.210;2023-02-26T04:44:36;0;0;
45871;PMS5003;32333;55.844;-3.210;2023-02-26T04:47:03;0;0;
45871;PMS5003;32333;55.844;-3.210;2023-02-26T04:49:31;0;0;
45871;PMS5003;32333;55.844;-3.210;2023-02-26T04:52:00;0;0;
45871;PMS5003;32333;55.844;-3.210;2023-02-26T04:54:29;0;0;
45871;PMS5003;32333;55.844;-3.210;2023-02-26T04:56:59;0;0;
45871;PMS5003;32333;55.844;-3.210;2023-02-26T04:59:27;0;0;
45871;PMS5003;32333;55.844;-3.210;2023-02-26T05:01:54;0;0;
45871;PMS5003;32333;55.844;-3.210;2023-02-26T05:04:23;0;0;
45871;PMS5003;32333;55.844;-3.210;2023-02-26T05:06:51;0;0;
45871;PMS5003;32333;55.844;-3.210;2023-02-26T05:09:21;0;0;
45871;PMS5003;32333;55.844;-3.210;2023-02-26T05:11:50;1;0;
45871;PMS5003;32333;55.844;-3.210;2023-02-26T05:14:35;0;0;
45871;PMS5003;32333;55.844;-3.210;2023-02-26T05:17:04;0;0;
45871;PMS5003;32333;55.844;-3.210;2023-02-26T05:19:32;0;0;
45871;PMS5003;32333;55.844;-3.210;2023-02-26T05:22:02;0;0;
45871;PMS5003;32333;55.844;-3.210;2023-02-26T05:24:30;0;0;
45871;PMS5003;32333;55.844;-3.210;2023-02-26T05:26:58;0;0;
45871;PMS5003;32333;55.844;-3.210;2023-02-26T05:29:26;0;0;
45871;PMS5003;32333;55.844;-3.210;2023-02-26T05:31:53;0;0;
45871;PMS5003;32333;55.844;-3.210;2023-02-26T05:34:21;0;0;
45871;PMS5003;32333;55.844;-3.210;2023-02-26T05:36:49;0;0;
45871;PMS5003;32333;55.844;-3.210;2023-02-26T05:39:16;0;0;
45871;PMS5003;32333;55.844;-3.210;2023-02-26T05:41:44;0;0;
45871;PMS5003;32333;55.844;-3.210;2023-02-26T05:44:35;0;0;
45871;PMS5003;32333;55.844;-3.210;2023-02-26T05:47:02;0;0;
45871;PMS5003;32333;55.844;-3.210;2023-02-26T05:49:30;0;0;
45871;PMS5003;32333;55.844;-3.210;2023-02-26T05:51:58;0;0;
45871;PMS5003;32333;55.844;-3.210;2023-02-26T05:54:26;0;0;
45871;PMS5003;32333;55.844;-3.210;2023-02-26T05:56:53;0;0;
45871;PMS5003;32333;55.844;-3.210;2023-02-26T05:59:22;0;0;
45871;PMS5003;32333;55.844;-3.210;2023-02-26T06:01:49;0;0;
45871;PMS5003;32333;55.844;-3.210;2023-02-26T06:04:18;0;0;
45871;PMS5003;32333;55.844;-3.210;2023-02-26T06:06:45;0;0;
45871;PMS5003;32333;55.844;-3.210;2023-02-26T06:09:13;0;0;
45871;PMS5003;32333;55.844;-3.210;2023-02-26T06:11:40;0;0;
45871;PMS5003;32333;55.844;-3.210;2023-02-26T06:14:35;0;0;
45871;PMS5003;32333;55.844;-3.210;2023-02-26T06:17:03;0;0;
45871;PMS5003;32333;55.844;-3.210;2023-02-26T06:19:31;0;0;
45871;PMS5003;32333;55.844;-3.210;2023-02-26T06:22:00;0;0;
45871;PMS5003;32333;55.844;-3.210;2023-02-26T06:24:27;0;0;
45871;PMS5003;32333;55.844;-3.210;2023-02-26T06:26:55;0;0;
45871;PMS5003;32333;55.844;-3.210;2023-02-26T06:29:22;0;0;
45871;PMS5003;32333;55.844;-3.210;2023-02-26T06:31:50;0;0;
45871;PMS5003;32333;55.844;-3.210;2023-02-26T06:34:17;0;0;
45871;PMS5003;32333;55.844;-3.210;2023-02-26T06:36:45;0;0;
45871;PMS5003;32333;55.844;-3.210;2023-02-26T06:39:13;0;0;
45871;PMS5003;32333;55.844;-3.210;2023-02-26T06:41:41;0;0;
45871;PMS5003;32333;55.844;-3.210;2023-02-26T06:44:35;0;0;
45871;PMS5003;32333;55.844;-3.210;2023-02-26T06:47:02;0;0;
45871;PMS5003;32333;55.844;-3.210;2023-02-26T06:49:30;0;0;
45871;PMS5003;32333;55.844;-3.210;2023-02-26T06:51:58;0;0;
45871;PMS5003;32333;55.844;-3.210;2023-02-26T06:54:26;0;0;
45871;PMS5003;32333;55.844;-3.210;2023-02-26T06:56:54;0;0;
45871;PMS5003;32333;55.844;-3.210;2023-02-26T06:59:21;0;0;
45871;PMS5003;32333;55.844;-3.210;2023-02-26T07:01:49;0;0;
45871;PMS5003;32333;55.844;-3.210;2023-02-26T07:04:16;0;0;
45871;PMS5003;32333;55.844;-3.210;2023-02-26T07:06:44;0;0;
45871;PMS5003;32333;55.844;-3.210;2023-02-26T07:09:12;0;0;
45871;PMS5003;32333;55.844;-3.210;2023-02-26T07:11:40;0;0;
45871;PMS5003;32333;55.844;-3.210;2023-02-26T07:14:35;0;0;
45871;PMS5003;32333;55.844;-3.210;2023-02-26T07:17:03;1;0;
45871;PMS5003;32333;55.844;-3.210;2023-02-26T07:19:31;0;0;
45871;PMS5003;32333;55.844;-3.210;2023-02-26T07:22:00;0;0;
45871;PMS5003;32333;55.844;-3.210;2023-02-26T07:25:07;0;0;
45871;PMS5003;32333;55.844;-3.210;2023-02-26T07:27:37;0;0;
45871;PMS5003;32333;55.844;-3.210;2023-02-26T07:30:11;0;0;
45871;PMS5003;32333;55.844;-3.210;2023-02-26T07:32:40;0;0;
45871;PMS5003;32333;55.844;-3.210;2023-02-26T07:35:17;0;0;
45871;PMS5003;32333;55.844;-3.210;2023-02-26T07:37:47;0;0;
45871;PMS5003;32333;55.844;-3.210;2023-02-26T07:40:15;0;0;
45871;PMS5003;32333;55.844;-3.210;2023-02-26T07:44:36;0;0;
45871;PMS5003;32333;55.844;-3.210;2023-02-26T07:47:04;0;0;
45871;PMS5003;32333;55.844;-3.210;2023-02-26T07:49:47;0;0;
45871;PMS5003;32333;55.844;-3.210;2023-02-26T07:52:16;0;0;
45871;PMS5003;32333;55.844;-3.210;2023-02-26T07:54:44;0;0;
45871;PMS5003;32333;55.844;-3.210;2023-02-26T07:57:12;0;0;
45871;PMS5003;32333;55.844;-3.210;2023-02-26T07:59:40;0;0;
45871;PMS5003;32333;55.844;-3.210;2023-02-26T08:02:09;0;0;
45871;PMS5003;32333;55.844;-3.210;2023-02-26T08:04:38;0;0;
45871;PMS5003;32333;55.844;-3.210;2023-02-26T08:07:09;0;0;
45871;PMS5003;32333;55.844;-3.210;2023-02-26T08:09:41;0;0;
45871;PMS5003;32333;55.844;-3.210;2023-02-26T08:14:36;0;0;
45871;PMS5003;32333;55.844;-3.210;2023-02-26T08:17:06;0;0;
45871;PMS5003;32333;55.844;-3.210;2023-02-26T08:19:36;0;0;
45871;PMS5003;32333;55.844;-3.210;2023-02-26T08:22:05;0;0;
45871;PMS5003;32333;55.844;-3.210;2023-02-26T08:24:35;0;0;
45871;PMS5003;32333;55.844;-3.210;2023-02-26T08:27:02;0;0;
45871;PMS5003;32333;55.844;-3.210;2023-02-26T08:29:30;3;3;
45871;PMS5003;32333;55.844;-3.210;2023-02-26T08:31:59;0;0;
45871;PMS5003;32333;55.844;-3.210;2023-02-26T08:34:26;0;0;
45871;PMS5003;32333;55.844;-3.210;2023-02-26T08:36:56;0;0;
45871;PMS5003;32333;55.844;-3.210;2023-02-26T08:39:24;0;0;
45871;PMS5003;32333;55.844;-3.210;2023-02-26T08:41:52;0;0;
45871;PMS5003;32333;55.844;-3.210;2023-02-26T08:44:35;1;1;
45871;PMS5003;32333;55.844;-3.210;2023-02-26T08:47:04;0;0;
45871;PMS5003;32333;55.844;-3.210;2023-02-26T08:49:32;0;0;
45871;PMS5003;32333;55.844;-3.210;2023-02-26T08:52:00;0;0;
45871;PMS5003;32333;55.844;-3.210;2023-02-26T08:55:09;0;0;
45871;PMS5003;32333;55.844;-3.210;2023-02-26T08:57:39;0;0;
45871;PMS5003;32333;55.844;-3.210;2023-02-26T09:00:08;0;0;
45871;PMS5003;32333;55.844;-3.210;2023-02-26T09:02:37;0;0;
45871;PMS5003;32333;55.844;-3.210;2023-02-26T09:05:05;0;0;
45871;PMS5003;32333;55.844;-3.210;2023-02-26T09:07:33;0;0;
45871;PMS5003;32333;55.844;-3.210;2023-02-26T09:10:02;0;0;
45871;PMS5003;32333;55.844;-3.210;2023-02-26T09:14:35;0;0;
45871;PMS5003;32333;55.844;-3.210;2023-02-26T09:17:03;0;0;
45871;PMS5003;32333;55.844;-3.210;2023-02-26T09:19:30;0;0;
45871;PMS5003;32333;55.844;-3.210;2023-02-26T09:21:59;0;0;
45871;PMS5003;32333;55.844;-3.210;2023-02-26T09:24:26;0;0;
45871;PMS5003;32333;55.844;-3.210;2023-02-26T09:26:54;0;0;
45871;PMS5003;32333;55.844;-3.210;2023-02-26T09:29:24;0;0;
45871;PMS5003;32333;55.844;-3.210;2023-02-26T09:31:52;0;0;
45871;PMS5003;32333;55.844;-3.210;2023-02-26T09:34:20;0;0;
45871;PMS5003;32333;55.844;-3.210;2023-02-26T09:36:49;0;0;
45871;PMS5003;32333;55.844;-3.210;2023-02-26T09:39:17;0;0;
45871;PMS5003;32333;55.844;-3.210;2023-02-26T09:41:46;0;0;
45871;PMS5003;32333;55.844;-3.210;2023-02-26T09:44:40;0;0;
45871;PMS5003;32333;55.844;-3.210;2023-02-26T09:47:12;0;0;
45871;PMS5003;32333;55.844;-3.210;2023-02-26T09:49:47;0;0;
45871;PMS5003;32333;55.844;-3.210;2023-02-26T09:52:21;0;0;
45871;PMS5003;32333;55.844;-3.210;2023-02-26T09:54:55;0;0;
45871;PMS5003;32333;55.844;-3.210;2023-02-26T09:57:26;0;0;
45871;PMS5003;32333;55.844;-3.210;2023-02-26T09:59:57;0;0;
45871;PMS5003;32333;55.844;-3.210;2023-02-26T10:02:31;0;0;
45871;PMS5003;32333;55.844;-3.210;2023-02-26T10:05:09;0;0;
45871;PMS5003;32333;55.844;-3.210;2023-02-26T10:07:47;0;0;
45871;PMS5003;32333;55.844;-3.210;2023-02-26T10:10:24;0;0;
45871;PMS5003;32333;55.844;-3.210;2023-02-26T10:14:36;0;0;
45871;PMS5003;32333;55.844;-3.210;2023-02-26T10:17:11;0;0;
45871;PMS5003;32333;55.844;-3.210;2023-02-26T10:19:47;0;0;
45871;PMS5003;32333;55.844;-3.210;2023-02-26T10:22:20;0;0;
45871;PMS5003;32333;55.844;-3.210;2023-02-26T10:24:54;7;1;
45871;PMS5003;32333;55.844;-3.210;2023-02-26T10:27:34;0;0;
45871;PMS5003;32333;55.844;-3.210;2023-02-26T10:30:18;0;0;
45871;PMS5003;32333;55.844;-3.210;2023-02-26T10:32:59;0;0;
45871;PMS5003;32333;55.844;-3.210;2023-02-26T10:35:35;0;0;
45871;PMS5003;32333;55.844;-3.210;2023-02-26T10:38:10;0;0;
45871;PMS5003;32333;55.844;-3.210;2023-02-26T10:40:42;0;0;
45871;PMS5003;32333;55.844;-3.210;2023-02-26T10:44:36;1;0;
45871;PMS5003;32333;55.844;-3.210;2023-02-26T10:47:11;1;0;
45871;PMS5003;32333;55.844;-3.210;2023-02-26T10:49:50;0;0;
45871;PMS5003;32333;55.844;-3.210;2023-02-26T10:52:23;0;0;
45871;PMS5003;32333;55.844;-3.210;2023-02-26T10:54:58;0;0;
45871;PMS5003;32333;55.844;-3.210;2023-02-26T10:57:34;0;0;
45871;PMS5003;32333;55.844;-3.210;2023-02-26T11:00:12;0;0;
45871;PMS5003;32333;55.844;-3.210;2023-02-26T11:02:44;0;0;
45871;PMS5003;32333;55.844;-3.210;2023-02-26T11:05:16;0;0;
45871;PMS5003;32333;55.844;-3.210;2023-02-26T11:07:56;0;0;
45871;PMS5003;32333;55.844;-3.210;2023-02-26T11:10:30;0;0;
45871;PMS5003;32333;55.844;-3.210;2023-02-26T11:14:35;0;0;
45871;PMS5003;32333;55.844;-3.210;2023-02-26T11:17:05;0;0;
45871;PMS5003;32333;55.844;-3.210;2023-02-26T11:19:38;0;0;
45871;PMS5003;32333;55.844;-3.210;2023-02-26T11:22:10;0;0;
45871;PMS5003;32333;55.844;-3.210;2023-02-26T11:24:40;0;0;
45871;PMS5003;32333;55.844;-3.210;2023-02-26T11:27:12;0;0;
45871;PMS5003;32333;55.844;-3.210;2023-02-26T11:29:45;0;0;
45871;PMS5003;32333;55.844;-3.210;2023-02-26T11:32:15;1;1;
45871;PMS5003;32333;55.844;-3.210;2023-02-26T11:34:45;0;0;
45871;PMS5003;32333;55.844;-3.210;2023-02-26T11:37:15;0;0;
45871;PMS5003;32333;55.844;-3.210;2023-02-26T11:39:45;0;0;
45871;PMS5003;32333;55.844;-3.210;2023-02-26T11:44:36;0;0;
45871;PMS5003;32333;55.844;-3.210;2023-02-26T11:47:06;0;0;
45871;PMS5003;32333;55.844;-3.210;2023-02-26T11:49:40;0;0;
45871;PMS5003;32333;55.844;-3.210;2023-02-26T11:52:15;0;0;
45871;PMS5003;32333;55.844;-3.210;2023-02-26T11:54:46;0;0;
45871;PMS5003;32333;55.844;-3.210;2023-02-26T11:57:18;0;0;
45871;PMS5003;32333;55.844;-3.210;2023-02-26T11:59:52;1;1;
45871;PMS5003;32333;55.844;-3.210;2023-02-26T12:02:25;0;0;
45871;PMS5003;32333;55.844;-3.210;2023-02-26T12:04:58;0;0;
45871;PMS5003;32333;55.844;-3.210;2023-02-26T12:07:28;0;0;
45871;PMS5003;32333;55.844;-3.210;2023-02-26T12:09:56;0;0;
45871;PMS5003;32333;55.844;-3.210;2023-02-26T12:14:39;0;0;
45871;PMS5003;32333;55.844;-3.210;2023-02-26T12:17:19;0;0;
45871;PMS5003;32333;55.844;-3.210;2023-02-26T12:19:57;0;0;
45871;PMS5003;32333;55.844;-3.210;2023-02-26T12:22:41;0;0;
45871;PMS5003;32333;55.844;-3.210;2023-02-26T12:25:19;0;0;
45871;PMS5003;32333;55.844;-3.210;2023-02-26T12:28:01;0;0;
45871;PMS5003;32333;55.844;-3.210;2023-02-26T12:30:49;0;0;
45871;PMS5003;32333;55.844;-3.210;2023-02-26T12:33:37;0;0;
45871;PMS5003;32333;55.844;-3.210;2023-02-26T12:36:23;0;0;
45871;PMS5003;32333;55.844;-3.210;2023-02-26T12:39:06;0;0;
45871;PMS5003;32333;55.844;-3.210;2023-02-26T12:41:48;0;0;
45871;PMS5003;32333;55.844;-3.210;2023-02-26T12:45:12;0;0;
45871;PMS5003;32333;55.844;-3.210;2023-02-26T12:47:58;0;0;
45871;PMS5003;32333;55.844;-3.210;2023-02-26T12:50:38;0;0;
45871;PMS5003;32333;55.844;-3.210;2023-02-26T12:53:30;0;0;
45871;PMS5003;32333;55.844;-3.210;2023-02-26T12:56:19;0;0;
45871;PMS5003;32333;55.844;-3.210;2023-02-26T12:59:02;0;0;
45871;PMS5003;32333;55.844;-3.210;2023-02-26T13:01:44;0;0;
45871;PMS5003;32333;55.844;-3.210;2023-02-26T13:04:57;0;0;
45871;PMS5003;32333;55.844;-3.210;2023-02-26T13:07:45;0;0;
45871;PMS5003;32333;55.844;-3.210;2023-02-26T13:10:22;0;0;
45871;PMS5003;32333;55.844;-3.210;2023-02-26T13:14:38;0;0;
45871;PMS5003;32333;55.844;-3.210;2023-02-26T13:17:17;0;0;
45871;PMS5003;32333;55.844;-3.210;2023-02-26T13:19:55;0;0;
45871;PMS5003;32333;55.844;-3.210;2023-02-26T13:22:27;0;0;
45871;PMS5003;32333;55.844;-3.210;2023-02-26T13:24:59;3;1;
45871;PMS5003;32333;55.844;-3.210;2023-02-26T13:27:31;4;2;
45871;PMS5003;32333;55.844;-3.210;2023-02-26T13:30:04;2;1;
45871;PMS5003;32333;55.844;-3.210;2023-02-26T13:32:42;0;0;
45871;PMS5003;32333;55.844;-3.210;2023-02-26T13:35:16;1;1;
45871;PMS5003;32333;55.844;-3.210;2023-02-26T13:37:48;1;1;
45871;PMS5003;32333;55.844;-3.210;2023-02-26T13:40:54;12;10;
45871;PMS5003;32333;55.844;-3.210;2023-02-26T13:44:34;11;11;
45871;PMS5003;32333;55.844;-3.210;2023-02-26T13:47:19;16;16;
45871;PMS5003;32333;55.844;-3.210;2023-02-26T13:50:02;21;17;
45871;PMS5003;32333;55.844;-3.210;2023-02-26T13:52:49;19;19;
45871;PMS5003;32333;55.844;-3.210;2023-02-26T13:55:53;9;9;
45871;PMS5003;32333;55.844;-3.210;2023-02-26T13:58:34;6;4;
45871;PMS5003;32333;55.844;-3.210;2023-02-26T14:01:07;6;6;
45871;PMS5003;32333;55.844;-3.210;2023-02-26T14:03:41;6;4;
45871;PMS5003;32333;55.844;-3.210;2023-02-26T14:06:40;11;11;
45871;PMS5003;32333;55.844;-3.210;2023-02-26T14:09:29;3;3;
45871;PMS5003;32333;55.844;-3.210;2023-02-26T14:14:35;3;2;
45871;PMS5003;32333;55.844;-3.210;2023-02-26T14:17:46;7;5;
45871;PMS5003;32333;55.844;-3.210;2023-02-26T14:20:20;7;7;
45871;PMS5003;32333;55.844;-3.210;2023-02-26T14:22:51;7;7;
45871;PMS5003;32333;55.844;-3.210;2023-02-26T14:25:37;7;7;
45871;PMS5003;32333;55.844;-3.210;2023-02-26T14:28:45;18;18;
45871;PMS5003;32333;55.844;-3.210;2023-02-26T14:31:24;17;16;
45871;PMS5003;32333;55.844;-3.210;2023-02-26T14:34:05;20;20;
45871;PMS5003;32333;55.844;-3.210;2023-02-26T14:36:40;27;25;
45871;PMS5003;32333;55.844;-3.210;2023-02-26T14:39:20;25;24;
45871;PMS5003;32333;55.844;-3.210;2023-02-26T14:41:54;24;24;
45871;PMS5003;32333;55.844;-3.210;2023-02-26T14:44:36;27;26;
45871;PMS5003;32333;55.844;-3.210;2023-02-26T14:47:07;23;23;
45871;PMS5003;32333;55.844;-3.210;2023-02-26T14:49:37;28;27;
45871;PMS5003;32333;55.844;-3.210;2023-02-26T14:52:21;35;32;
45871;PMS5003;32333;55.844;-3.210;2023-02-26T14:55:10;9;9;
45871;PMS5003;32333;55.844;-3.210;2023-02-26T14:57:59;38;38;
45871;PMS5003;32333;55.844;-3.210;2023-02-26T15:00:45;48;48;
45871;PMS5003;32333;55.844;-3.210;2023-02-26T15:03:38;48;47;
45871;PMS5003;32333;55.844;-3.210;2023-02-26T15:15:31;35;35;
45871;PMS5003;32333;55.844;-3.210;2023-02-26T15:19:43;32;32;
45871;PMS5003;32333;55.844;-3.210;2023-02-26T15:35:50;6;6;
45871;PMS5003;32333;55.844;-3.210;2023-02-26T15:38:21;10;10;
45871;PMS5003;32333;55.844;-3.210;2023-02-26T15:40:52;9;9;
45871;PMS5003;32333;55.844;-3.210;2023-02-26T15:44:34;7;7;
45871;PMS5003;32333;55.844;-3.210;2023-02-26T15:47:02;8;8;
45871;PMS5003;32333;55.844;-3.210;2023-02-26T15:49:32;12;11;
45871;PMS5003;32333;55.844;-3.210;2023-02-26T15:52:03;9;9;
45871;PMS5003;32333;55.844;-3.210;2023-02-26T15:54:34;12;12;
45871;PMS5003;32333;55.844;-3.210;2023-02-26T15:57:06;12;12;
45871;PMS5003;32333;55.844;-3.210;2023-02-26T15:59:36;16;16;
45871;PMS5003;32333;55.844;-3.210;2023-02-26T16:02:15;7;7;
45871;PMS5003;32333;55.844;-3.210;2023-02-26T16:05:03;17;17;
45871;PMS5003;32333;55.844;-3.210;2023-02-26T16:07:41;20;20;
45871;PMS5003;32333;55.844;-3.210;2023-02-26T16:10:15;18;18;
45871;PMS5003;32333;55.844;-3.210;2023-02-26T16:14:34;17;16;
45871;PMS5003;32333;55.844;-3.210;2023-02-26T16:17:06;16;14;
45871;PMS5003;32333;55.844;-3.210;2023-02-26T16:19:41;16;15;
45871;PMS5003;32333;55.844;-3.210;2023-02-26T16:22:15;9;9;
45871;PMS5003;32333;55.844;-3.210;2023-02-26T16:24:53;8;8;
45871;PMS5003;32333;55.844;-3.210;2023-02-26T16:27:27;7;7;
45871;PMS5003;32333;55.844;-3.210;2023-02-26T16:29:57;2;2;
45871;PMS5003;32333;55.844;-3.210;2023-02-26T16:32:30;2;2;
45871;PMS5003;32333;55.844;-3.210;2023-02-26T16:35:01;2;1;
45871;PMS5003;32333;55.844;-3.210;2023-02-26T16:37:36;2;1;
45871;PMS5003;32333;55.844;-3.210;2023-02-26T16:40:15;5;3;
45871;PMS5003;32333;55.844;-3.210;2023-02-26T16:44:38;1;1;
45871;PMS5003;32333;55.844;-3.210;2023-02-26T16:47:13;39;31;
45871;PMS5003;32333;55.844;-3.210;2023-02-26T16:49:43;2;2;
45871;PMS5003;32333;55.844;-3.210;2023-02-26T16:52:14;3;3;
45871;PMS5003;32333;55.844;-3.210;2023-02-26T16:54:55;2;2;
45871;PMS5003;32333;55.844;-3.210;2023-02-26T16:57:31;3;3;
45871;PMS5003;32333;55.844;-3.210;2023-02-26T17:00:02;2;2;
45871;PMS5003;32333;55.844;-3.210;2023-02-26T17:02:34;2;2;
45871;PMS5003;32333;55.844;-3.210;2023-02-26T17:05:08;5;3;
45871;PMS5003;32333;55.844;-3.210;2023-02-26T17:07:46;3;2;
45871;PMS5003;32333;55.844;-3.210;2023-02-26T17:10:25;2;2;
45871;PMS5003;32333;55.844;-3.210;2023-02-26T17:14:36;2;2;
45871;PMS5003;32333;55.844;-3.210;2023-02-26T17:17:05;2;2;
45871;PMS5003;32333;55.844;-3.210;2023-02-26T17:19:33;5;3;
45871;PMS5003;32333;55.844;-3.210;2023-02-26T17:22:00;6;3;
45871;PMS5003;32333;55.844;-3.210;2023-02-26T17:24:29;3;3;
45871;PMS5003;32333;55.844;-3.210;2023-02-26T17:26:59;2;2;
45871;PMS5003;32333;55.844;-3.210;2023-02-26T17:29:29;3;1;
45871;PMS5003;32333;55.844;-3.210;2023-02-26T17:32:05;1;1;
45871;PMS5003;32333;55.844;-3.210;2023-02-26T17:34:38;8;7;
45871;PMS5003;32333;55.844;-3.210;2023-02-26T17:37:07;3;3;
45871;PMS5003;32333;55.844;-3.210;2023-02-26T17:39:37;3;3;
45871;PMS5003;32333;55.844;-3.210;2023-02-26T17:44:34;14;10;
45871;PMS5003;32333;55.844;-3.210;2023-02-26T17:47:01;11;9;
45871;PMS5003;32333;55.844;-3.210;2023-02-26T17:49:29;12;11;
45871;PMS5003;32333;55.844;-3.210;2023-02-26T17:51:56;5;3;
45871;PMS5003;32333;55.844;-3.210;2023-02-26T17:54:23;5;3;
45871;PMS5003;32333;55.844;-3.210;2023-02-26T17:56:51;5;5;
45871;PMS5003;32333;55.844;-3.210;2023-02-26T17:59:18;3;3;
45871;PMS5003;32333;55.844;-3.210;2023-02-26T18:01:45;11;7;
45871;PMS5003;32333;55.844;-3.210;2023-02-26T18:04:12;3;2;
45871;PMS5003;32333;55.844;-3.210;2023-02-26T18:06:40;3;3;
45871;PMS5003;32333;55.844;-3.210;2023-02-26T18:09:09;2;2;
45871;PMS5003;32333;55.844;-3.210;2023-02-26T18:11:37;3;3;
45871;PMS5003;32333;55.844;-3.210;2023-02-26T18:14:34;6;6;
45871;PMS5003;32333;55.844;-3.210;2023-02-26T18:17:01;3;3;
45871;PMS5003;32333;55.844;-3.210;2023-02-26T18:19:29;4;2;
45871;PMS5003;32333;55.844;-3.210;2023-02-26T18:21:57;3;2;
45871;PMS5003;32333;55.844;-3.210;2023-02-26T18:24:24;3;1;
45871;PMS5003;32333;55.844;-3.210;2023-02-26T18:26:53;3;3;
45871;PMS5003;32333;55.844;-3.210;2023-02-26T18:29:21;2;2;
45871;PMS5003;32333;55.844;-3.210;2023-02-26T18:31:49;5;3;